Time;durP1;ratioP1;P1;durP2;ratioP2;P2;SDS_P1;SDS_P2;PMS_P1;PMS_P2;Temp;Humidity;BMP_temperature;BMP_pressure;BME280_temperature;BME280_humidity;BME280_pressure;Samples;Min_cycle;Max_cycle;Signal;HPM_P1;HPM_P2
2022/12/11 00:05:48;;;;;;;45.47;19.70;;;;;;;0.21;74.03;99304.88;30695993;28;96710;-64
2022/12/11 00:20:49;;;;;;;39.35;19.48;;;;;;;0.12;74.43;99309.09;30722834;28;96816;-64
2022/12/11 00:35:49;;;;;;;46.45;20.48;;;;;;;0.16;74.47;99309.66;30725356;28;96828;-65
2022/12/11 00:50:49;;;;;;;47.72;21.55;;;;;;;0.14;74.51;99316.81;30723689;28;97255;-65
2022/12/11 01:05:53;;;;;;;45.05;22.02;;;;;;;0.20;74.65;99300.59;30780675;28;96770;-67
2022/12/11 01:20:53;;;;;;;39.72;18.35;;;;;;;0.15;74.51;99321.94;30874275;28;96559;-66
2022/12/11 01:35:54;;;;;;;42.80;18.48;;;;;;;0.12;74.53;99321.34;30873667;28;96722;-66
2022/12/11 01:50:58;;;;;;;42.67;18.65;;;;;;;0.17;74.78;99316.56;30871582;28;97557;-66
2022/12/11 02:06:00;;;;;;;38.63;18.52;;;;;;;0.12;74.57;99290.75;30869520;28;96768;-67
2022/12/11 02:21:18;;;;;;;35.42;18.73;;;;;;;0.09;74.57;99264.81;30868764;28;96804;-67
2022/12/11 02:36:23;;;;;;;40.13;18.23;;;;;;;0.04;74.69;99271.38;30867249;28;96732;-67
2022/12/11 02:51:33;;;;;;;33.00;16.95;;;;;;;-0.04;74.16;99272.84;30865660;28;97656;-67
2022/12/11 03:06:41;;;;;;;39.08;17.50;;;;;;;-0.08;74.51;99281.03;30863700;28;96680;-67
2022/12/11 03:21:53;;;;;;;33.85;17.23;;;;;;;-0.09;74.33;99288.09;30860666;28;98106;-67
2022/12/11 03:36:56;;;;;;;36.00;16.55;;;;;;;-0.15;74.40;99287.75;30861447;28;96675;-66
2022/12/11 03:52:00;;;;;;;38.95;18.42;;;;;;;-0.21;74.67;99278.59;30860791;28;97108;-66
2022/12/11 04:07:00;;;;;;;39.40;16.77;;;;;;;-0.24;74.65;99257.91;30856514;28;97499;-67
2022/12/11 04:37:20;;;;;;;37.75;17.52;;;;;;;-0.32;74.41;99247.22;30855929;28;97000;-67
2022/12/11 04:52:20;;;;;;;32.22;16.05;;;;;;;-0.42;74.52;99239.31;30854597;28;98341;-67
2022/12/11 05:07:21;;;;;;;28.42;14.73;;;;;;;-0.50;74.46;99234.66;30852449;28;97021;-66
2022/12/11 05:22:21;;;;;;;32.05;15.80;;;;;;;-0.53;74.54;99229.69;30851594;28;96789;-67
2022/12/11 05:37:21;;;;;;;25.90;14.82;;;;;;;-0.54;74.46;99225.41;30851343;28;96667;-67
2022/12/11 05:52:22;;;;;;;27.40;14.65;;;;;;;-0.63;74.40;99220.91;30869966;28;97663;-67
2022/12/11 06:07:22;;;;;;;28.38;13.88;;;;;;;-0.69;74.24;99228.28;30869763;28;97172;-66
2022/12/11 06:22:23;;;;;;;21.40;12.07;;;;;;;-0.66;73.98;99242.91;30867500;28;96729;-66
2022/12/11 06:37:23;;;;;;;28.95;12.95;;;;;;;-0.70;74.03;99271.09;30866771;28;97045;-67
2022/12/11 06:52:26;;;;;;;22.58;12.38;;;;;;;-0.71;73.68;99260.72;30862134;28;97101;-67
2022/12/11 07:07:26;;;;;;;25.50;12.00;;;;;;;-0.68;73.81;99277.03;30862715;28;96969;-66
2022/12/11 07:22:28;;;;;;;20.20;12.02;;;;;;;-0.72;73.41;99270.38;30860681;28;97086;-66
2022/12/11 07:37:28;;;;;;;21.35;11.95;;;;;;;-0.74;73.34;99280.13;30860021;28;96677;-66
2022/12/11 07:52:29;;;;;;;18.52;11.60;;;;;;;-0.70;73.27;99273.72;30718919;28;96713;-66
2022/12/11 08:07:29;;;;;;;23.23;12.07;;;;;;;-0.78;72.89;99283.94;30673574;28;96807;-66
2022/12/11 08:22:30;;;;;;;17.23;10.98;;;;;;;-0.74;72.83;99280.13;30664972;28;97640;-65
2022/12/11 08:37:33;;;;;;;20.02;11.43;;;;;;;-0.72;72.76;99280.84;30690884;28;96817;-66
2022/12/11 08:52:34;;;;;;;22.13;11.70;;;;;;;-0.74;72.02;99271.44;30688983;28;97714;-66
2022/12/11 09:07:35;;;;;;;22.98;11.60;;;;;;;-0.78;72.13;99283.09;30641136;28;96939;-62
2022/12/11 09:22:36;;;;;;;23.80;10.85;;;;;;;-0.82;71.58;99264.22;30615578;28;96996;-67
2022/12/11 09:37:36;;;;;;;14.48;8.98;;;;;;;-0.61;71.96;99247.78;30613699;28;97848;-64
2022/12/11 09:52:46;;;;;;;17.30;10.50;;;;;;;-0.68;71.16;99234.34;30579467;28;98357;-62
2022/12/11 10:07:59;;;;;;;18.40;9.68;;;;;;;-0.70;70.73;99226.63;30570387;28;97749;-62
2022/12/11 10:23:00;;;;;;;19.35;9.38;;;;;;;-0.73;70.18;99199.88;30613793;28;96737;-63
2022/12/11 10:38:14;;;;;;;13.95;9.23;;;;;;;-0.87;70.06;99193.13;30611518;28;97152;-66
2022/12/11 10:53:24;;;;;;;17.50;7.77;;;;;;;-0.86;69.68;99179.13;30610632;28;98695;-64
2022/12/11 11:08:26;;;;;;;14.52;8.93;;;;;;;-0.79;69.37;99174.19;30557265;28;97250;-64
2022/12/11 11:23:27;;;;;;;13.63;8.98;;;;;;;-0.92;68.68;99149.03;30520666;28;99185;-66
2022/12/11 11:38:39;;;;;;;13.13;7.70;;;;;;;-1.02;68.94;99142.88;30542918;28;96730;-63
2022/12/11 11:53:40;;;;;;;13.65;7.85;;;;;;;-0.98;68.70;99131.25;30535285;28;97268;-64
2022/12/11 12:09:15;;;;;;;15.77;9.30;;;;;;;-1.07;68.47;99132.78;30512172;28;97141;-64
2022/12/11 12:24:33;;;;;;;15.30;8.30;;;;;;;-1.06;68.40;99133.63;30540135;28;96828;-62
2022/12/11 12:39:51;;;;;;;12.00;8.18;;;;;;;-1.07;68.48;99118.88;30495384;28;96757;-62
2022/12/11 12:55:15;;;;;;;13.05;7.32;;;;;;;-1.13;68.34;99124.63;30502992;28;97251;-67
2022/12/11 13:10:31;;;;;;;13.88;7.80;;;;;;;-1.30;68.12;99128.53;30487866;28;96830;-65
2022/12/11 13:25:44;;;;;;;13.10;7.97;;;;;;;-1.39;68.42;99119.66;30480517;28;97218;-68
2022/12/11 13:40:48;;;;;;;11.13;6.93;;;;;;;-1.45;68.20;99117.50;30488439;28;96849;-61
2022/12/11 13:55:56;;;;;;;6.87;4.80;;;;;;;-1.54;68.19;99121.69;30475055;28;96869;-62
2022/12/11 14:10:56;;;;;;;10.68;6.97;;;;;;;-1.54;67.87;99129.53;30490788;28;96715;-61
2022/12/11 14:26:01;;;;;;;11.70;6.60;;;;;;;-1.62;67.82;99140.56;30552918;28;98186;-61
2022/12/11 14:41:12;;;;;;;10.50;6.60;;;;;;;-1.68;67.58;99120.16;30615265;28;97036;-62
2022/12/11 14:56:23;;;;;;;8.10;5.60;;;;;;;-1.78;67.48;99120.00;30612900;28;96949;-61
2022/12/11 15:11:30;;;;;;;10.10;5.80;;;;;;;-1.76;67.10;99117.28;30562603;28;96598;-62
2022/12/11 15:26:34;;;;;;;9.20;6.10;;;;;;;-1.82;67.48;99126.41;30537393;28;96837;-69
2022/12/11 15:41:35;;;;;;;9.57;5.80;;;;;;;-1.89;67.49;99120.84;30542075;28;96656;-65
2022/12/11 15:56:35;;;;;;;6.95;4.75;;;;;;;-1.93;67.65;99127.25;30509906;28;97329;-64
2022/12/11 16:11:36;;;;;;;10.48;5.55;;;;;;;-2.02;66.92;99133.16;30483738;28;98146;-62
2022/12/11 16:26:36;;;;;;;11.45;5.85;;;;;;;-2.03;67.40;99128.06;30484118;28;97212;-66
2022/12/11 16:41:37;;;;;;;9.52;5.68;;;;;;;-2.07;67.13;99133.50;30481808;28;97572;-65
2022/12/11 16:56:38;;;;;;;11.50;6.50;;;;;;;-2.11;67.38;99113.78;30481762;28;97005;-62
2022/12/11 17:11:38;;;;;;;8.52;5.18;;;;;;;-2.19;67.54;99100.50;30478960;28;97266;-62
2022/12/11 17:26:38;;;;;;;10.32;6.10;;;;;;;-2.14;67.29;99114.03;30579000;28;97386;-70
2022/12/11 17:41:39;;;;;;;15.52;7.15;;;;;;;-2.03;67.12;99105.38;30628566;28;97382;-70
2022/12/11 17:56:39;;;;;;;14.43;7.32;;;;;;;-2.07;68.05;99114.41;30602609;28;97207;-68
2022/12/11 18:11:40;;;;;;;22.33;8.68;;;;;;;-2.15;68.00;99112.34;30565382;28;96797;-71
2022/12/11 18:26:43;;;;;;;14.18;7.38;;;;;;;-2.12;68.98;99127.81;30572832;28;97072;-67
2022/12/11 18:41:44;;;;;;;11.65;5.93;;;;;;;-2.14;69.05;99119.25;30535814;28;97687;-68
2022/12/11 18:56:44;;;;;;;13.48;6.60;;;;;;;-2.21;70.10;99123.28;30542689;28;97756;-71
2022/12/11 19:11:45;;;;;;;16.08;7.85;;;;;;;-2.25;70.63;99109.63;30541787;28;96749;-70
2022/12/11 19:26:46;;;;;;;13.60;8.68;;;;;;;-2.26;70.66;99094.91;30551961;28;96612;-69
2022/12/11 19:41:47;;;;;;;16.10;7.58;;;;;;;-2.27;70.92;99102.84;30485396;28;96675;-69
2022/12/11 19:56:47;;;;;;;16.10;7.97;;;;;;;-2.33;71.41;99104.13;30485364;28;96693;-71
2022/12/11 20:11:48;;;;;;;14.43;8.35;;;;;;;-2.34;71.87;99101.66;30484446;28;96659;-69
2022/12/11 20:26:52;;;;;;;9.52;6.70;;;;;;;-2.29;72.52;99094.31;30553385;28;97695;-67
2022/12/11 20:41:53;;;;;;;17.13;7.60;;;;;;;-2.25;72.20;99107.00;30601597;28;96869;-67
2022/12/11 20:56:53;;;;;;;17.52;8.88;;;;;;;-2.26;72.54;99087.06;30600472;28;96853;-68
2022/12/11 21:11:56;;;;;;;13.23;7.15;;;;;;;-2.23;73.18;99070.34;30601840;28;97110;-68
2022/12/11 21:26:57;;;;;;;20.20;10.75;;;;;;;-2.25;72.77;99080.09;30619817;28;97521;-68
2022/12/11 21:41:59;;;;;;;12.77;8.35;;;;;;;-2.16;73.46;99074.19;30601202;28;96671;-68
2022/12/11 21:56:59;;;;;;;15.73;8.45;;;;;;;-2.16;73.59;99081.16;30519998;28;96783;-67
2022/12/11 22:12:00;;;;;;;23.13;9.63;;;;;;;-2.23;73.49;99080.78;30502332;28;96799;-68
2022/12/11 22:27:01;;;;;;;15.63;8.10;;;;;;;-2.25;74.05;99072.25;30499363;28;96931;-68
2022/12/11 22:42:01;;;;;;;17.45;9.93;;;;;;;-2.26;73.64;99073.22;30526002;28;96931;-70
2022/12/11 22:57:02;;;;;;;18.33;9.52;;;;;;;-2.23;74.72;99072.97;30612319;28;96721;-70
2022/12/11 23:12:02;;;;;;;21.48;10.93;;;;;;;-2.25;74.27;99064.44;30575251;28;1245941;-69
2022/12/11 23:27:03;;;;;;;23.33;11.25;;;;;;;-2.20;74.54;99062.31;30618369;28;98540;-69
2022/12/11 23:42:03;;;;;;;20.05;10.95;;;;;;;-2.15;74.89;99052.34;30616999;28;96660;-72
2022/12/11 23:57:03;;;;;;;18.48;9.75;;;;;;;-2.14;74.88;99064.44;30617131;28;97074;-67
